createdAt,value
2019-05-14T00:00:46.308Z,8.81
2019-05-14T00:01:51.404Z,8.74
2019-05-14T00:02:55.507Z,8.69
2019-05-14T00:03:58.966Z,8.68
2019-05-14T00:05:03.091Z,8.70
2019-05-14T00:06:06.517Z,8.66
2019-05-14T00:07:11.595Z,8.64
2019-05-14T00:08:17.555Z,8.61
2019-05-14T00:09:21.506Z,8.56
2019-05-14T00:10:24.974Z,8.59
2019-05-14T00:11:31.215Z,8.59
2019-05-14T00:12:34.111Z,8.52
2019-05-14T00:13:38.116Z,8.50
2019-05-14T00:14:43.729Z,8.49
2019-05-14T00:15:47.355Z,8.48
2019-05-14T00:16:51.400Z,8.56
2019-05-14T00:17:55.422Z,8.61
2019-05-14T00:18:59.018Z,8.52
2019-05-14T00:20:09.712Z,8.45
2019-05-14T00:21:08.228Z,8.47
2019-05-14T00:22:12.208Z,8.50
2019-05-14T00:23:15.636Z,8.47
2019-05-14T00:24:21.619Z,8.41
2019-05-14T00:25:24.864Z,8.41
2019-05-14T00:26:28.922Z,8.43
2019-05-14T00:27:32.390Z,8.44
2019-05-14T00:28:36.397Z,8.41
2019-05-14T00:29:41.758Z,8.39
2019-05-14T00:30:45.691Z,8.43
2019-05-14T00:31:51.530Z,8.43
2019-05-14T00:32:54.927Z,8.43
2019-05-14T00:33:58.438Z,8.43
2019-05-14T00:35:02.511Z,8.44
2019-05-14T00:36:05.960Z,8.44
2019-05-14T00:37:11.499Z,8.43
2019-05-14T00:38:15.107Z,8.42
2019-05-14T00:39:21.247Z,8.39
2019-05-14T00:40:24.267Z,8.28
2019-05-14T00:41:28.249Z,8.28
2019-05-14T00:42:32.051Z,8.32
2019-05-14T00:43:36.031Z,8.30
2019-05-14T00:44:51.640Z,8.30
2019-05-14T00:45:45.263Z,8.32
2019-05-14T00:46:48.690Z,8.32
2019-05-14T00:47:52.765Z,8.37
2019-05-14T00:48:56.202Z,8.38
2019-05-14T00:50:02.260Z,8.27
2019-05-14T00:51:05.423Z,8.27
2019-05-14T00:52:11.515Z,8.24
2019-05-14T00:53:14.628Z,8.15
2019-05-14T00:54:18.634Z,8.16
2019-05-14T00:55:22.476Z,8.16
2019-05-14T00:56:26.578Z,8.16
2019-05-14T00:57:31.581Z,8.14
2019-05-14T00:58:35.473Z,8.10
2019-05-14T00:59:38.916Z,8.12
2019-05-14T01:00:43.188Z,8.12
2019-05-14T01:01:46.692Z,8.14
2019-05-14T01:02:51.835Z,8.15
2019-05-14T01:03:55.453Z,8.14
2019-05-14T01:05:01.715Z,8.13
2019-05-14T01:06:04.748Z,8.08
2019-05-14T01:07:08.822Z,8.16
2019-05-14T01:08:12.256Z,8.16
2019-05-14T01:09:16.274Z,8.09
2019-05-14T01:10:21.992Z,8.09
2019-05-14T01:11:25.566Z,8.01
2019-05-14T01:12:28.991Z,8.03
2019-05-14T01:13:32.979Z,8.05
2019-05-14T01:14:36.432Z,8.05
2019-05-14T01:15:41.474Z,7.91
2019-05-14T01:16:45.036Z,7.91
2019-05-14T01:17:51.636Z,7.90
2019-05-14T01:18:55.158Z,7.92
2019-05-14T01:19:59.301Z,7.92
2019-05-14T01:21:02.811Z,7.91
2019-05-14T01:22:06.925Z,7.88
2019-05-14T01:23:11.525Z,7.84
2019-05-14T01:24:15.596Z,7.90
2019-05-14T01:25:19.043Z,7.90
2019-05-14T01:26:23.043Z,7.93
2019-05-14T01:27:26.553Z,7.93
2019-05-14T01:28:32.152Z,7.96
2019-05-14T01:29:35.816Z,8.00
2019-05-14T01:30:41.114Z,7.88
2019-05-14T01:31:44.703Z,7.88
2019-05-14T01:32:50.983Z,7.94
2019-05-14T01:33:53.903Z,7.94
2019-05-14T01:34:57.984Z,7.94
2019-05-14T01:36:02.061Z,7.94
2019-05-14T01:37:06.284Z,7.94
2019-05-14T01:38:11.474Z,7.99
2019-05-14T01:39:15.650Z,7.99
2019-05-14T01:40:19.163Z,7.98
2019-05-14T01:41:23.155Z,7.93
2019-05-14T01:42:26.580Z,7.92
2019-05-14T01:43:31.501Z,7.90
2019-05-14T01:44:35.079Z,7.85
2019-05-14T01:45:41.554Z,7.84
2019-05-14T01:46:44.247Z,7.84
2019-05-14T01:47:48.365Z,7.85
2019-05-14T01:48:52.229Z,7.85
2019-05-14T01:49:56.227Z,7.87
2019-05-14T01:51:01.594Z,7.81
2019-05-14T01:52:05.612Z,7.82
2019-05-14T01:53:11.397Z,7.83
2019-05-14T01:54:14.949Z,7.83
2019-05-14T01:55:18.392Z,7.83
2019-05-14T01:56:22.446Z,7.81
2019-05-14T01:57:25.948Z,7.85
2019-05-14T01:58:31.121Z,7.91
2019-05-14T01:59:34.750Z,7.94
2019-05-14T02:00:38.607Z,7.88
2019-05-14T02:01:42.073Z,7.85
2019-05-14T02:02:46.131Z,7.82
2019-05-14T02:03:51.633Z,7.85
2019-05-14T02:04:55.396Z,7.85
2019-05-14T02:06:01.188Z,7.80
2019-05-14T02:07:04.764Z,7.80
2019-05-14T02:08:08.196Z,7.81
2019-05-14T02:09:12.259Z,7.78
2019-05-14T02:10:16.298Z,7.82
2019-05-14T02:11:21.385Z,7.85
2019-05-14T02:12:24.980Z,7.81
2019-05-14T02:13:28.972Z,7.86
2019-05-14T02:14:32.535Z,7.92
2019-05-14T02:15:39.953Z,7.95
2019-05-14T02:16:42.412Z,7.93
2019-05-14T02:17:46.433Z,7.84
2019-05-14T02:18:52.061Z,7.85
2019-05-14T02:19:55.666Z,7.86
2019-05-14T02:21:01.347Z,7.85
2019-05-14T02:22:04.900Z,7.86
2019-05-14T02:23:08.314Z,7.85
2019-05-14T02:24:12.298Z,7.85
2019-05-14T02:25:15.802Z,7.89
2019-05-14T02:26:21.886Z,7.88
2019-05-14T02:27:25.025Z,7.83
2019-05-14T02:28:31.301Z,7.78
2019-05-14T02:29:34.182Z,7.78
2019-05-14T02:30:48.043Z,7.84
2019-05-14T02:31:43.338Z,7.89
2019-05-14T02:32:49.791Z,7.90
2019-05-14T02:33:52.497Z,7.91
2019-05-14T02:34:58.974Z,7.91
2019-05-14T02:36:01.720Z,7.88
2019-05-14T02:37:09.000Z,7.91
2019-05-14T02:38:11.028Z,7.94
2019-05-14T02:39:15.016Z,7.95
2019-05-14T02:40:20.209Z,7.95
2019-05-14T02:41:24.562Z,7.97
2019-05-14T02:42:28.986Z,7.87
2019-05-14T02:43:33.160Z,7.87
2019-05-14T02:44:40.293Z,7.91
2019-05-14T02:46:00.822Z,7.92
2019-05-14T02:46:50.575Z,7.92
2019-05-14T02:47:53.962Z,7.84
2019-05-14T02:48:59.448Z,7.80
2019-05-14T02:50:03.274Z,7.74
2019-05-14T02:51:10.218Z,7.76
2019-05-14T02:52:12.407Z,7.76
2019-05-14T02:53:19.521Z,7.74
2019-05-14T02:54:21.591Z,7.74
2019-05-14T02:55:25.097Z,7.68
2019-05-14T02:56:29.746Z,7.70
2019-05-14T02:57:33.192Z,7.71
2019-05-14T02:58:40.109Z,7.72
2019-05-14T02:59:42.537Z,7.68
2019-05-14T03:00:49.076Z,7.66
2019-05-14T03:01:51.743Z,7.67
2019-05-14T03:02:55.799Z,7.64
2019-05-14T03:03:59.915Z,7.55
2019-05-14T03:05:04.983Z,7.55
2019-05-14T03:06:09.498Z,7.49
2019-05-14T03:07:13.837Z,7.49
2019-05-14T03:08:19.856Z,7.49
2019-05-14T03:09:23.390Z,7.49
2019-05-14T03:10:29.938Z,7.56
2019-05-14T03:11:32.667Z,7.55
2019-05-14T03:12:39.540Z,7.44
2019-05-14T03:13:42.191Z,7.42
2019-05-14T03:14:45.784Z,7.37
2019-05-14T03:15:50.219Z,7.37
2019-05-14T03:16:53.864Z,7.42
2019-05-14T03:17:59.899Z,7.42
2019-05-14T03:19:03.232Z,7.48
2019-05-14T03:20:09.323Z,7.46
2019-05-14T03:21:12.844Z,7.46
2019-05-14T03:22:25.800Z,7.46
2019-05-14T03:23:23.277Z,7.48
2019-05-14T03:24:28.890Z,7.45
2019-05-14T03:25:32.629Z,7.41
2019-05-14T03:26:39.469Z,7.46
2019-05-14T03:27:41.936Z,7.48
2019-05-14T03:28:49.259Z,7.48
2019-05-14T03:29:51.286Z,7.55
2019-05-14T03:30:55.366Z,7.62
2019-05-14T03:32:03.260Z,7.59
2019-05-14T03:33:04.644Z,7.49
2019-05-14T03:34:13.600Z,7.45
2019-05-14T03:35:14.621Z,7.47
2019-05-14T03:36:25.987Z,7.50
2019-05-14T03:37:24.654Z,7.51
2019-05-14T03:38:29.583Z,7.46
2019-05-14T03:39:33.947Z,7.39
2019-05-14T03:40:39.949Z,7.40
2019-05-14T03:41:43.411Z,7.40
2019-05-14T03:42:49.027Z,7.46
2019-05-14T03:43:52.829Z,7.45
2019-05-14T03:44:59.373Z,7.45
2019-05-14T03:46:02.198Z,7.38
2019-05-14T03:47:09.934Z,7.38
2019-05-14T03:48:11.440Z,7.42
2019-05-14T03:49:14.946Z,7.38
2019-05-14T03:50:19.329Z,7.38
2019-05-14T03:51:22.910Z,7.42
2019-05-14T03:52:29.179Z,7.38
2019-05-14T03:53:50.776Z,7.37
2019-05-14T03:54:40.593Z,7.35
2019-05-14T03:55:43.571Z,7.35
2019-05-14T03:56:49.745Z,7.36
2019-05-14T03:57:53.039Z,7.35
2019-05-14T03:58:59.999Z,7.36
2019-05-14T04:00:02.395Z,7.35
2019-05-14T04:01:09.606Z,7.31
2019-05-14T04:02:11.989Z,7.24
2019-05-14T04:03:19.531Z,7.21
2019-05-14T04:04:21.706Z,7.27
2019-05-14T04:05:29.248Z,7.25
2019-05-14T04:06:31.515Z,7.22
2019-05-14T04:07:39.363Z,7.17
2019-05-14T04:08:44.162Z,7.17
2019-05-14T04:09:49.593Z,7.26
2019-05-14T04:10:55.338Z,7.26
2019-05-14T04:12:02.438Z,7.26
2019-05-14T04:13:09.023Z,7.28
2019-05-14T04:14:14.352Z,7.24
2019-05-14T04:15:19.256Z,7.18
2019-05-14T04:16:24.509Z,7.17
2019-05-14T04:17:37.016Z,7.24
2019-05-14T04:18:40.517Z,7.21
2019-05-14T04:19:45.434Z,7.19
2019-05-14T04:20:50.624Z,7.09
2019-05-14T04:21:55.502Z,7.07
2019-05-14T04:23:01.294Z,7.11
2019-05-14T04:24:04.902Z,7.08
2019-05-14T04:25:11.185Z,7.05
2019-05-14T04:26:20.034Z,7.06
2019-05-14T04:27:25.428Z,7.08
2019-05-14T04:28:31.244Z,7.13
2019-05-14T04:29:39.551Z,7.17
2019-05-14T04:30:45.167Z,7.19
2019-05-14T04:31:50.147Z,7.24
2019-05-14T04:32:55.803Z,7.24
2019-05-14T04:34:01.928Z,7.23
2019-05-14T04:35:05.791Z,7.24
2019-05-14T04:36:10.259Z,7.24
2019-05-14T04:37:14.313Z,7.25
2019-05-14T04:38:20.220Z,7.26
2019-05-14T04:39:23.870Z,7.26
2019-05-14T04:40:29.641Z,7.29
2019-05-14T04:41:33.334Z,7.34
2019-05-14T04:42:40.243Z,7.41
2019-05-14T04:43:42.855Z,7.43
2019-05-14T04:44:49.979Z,7.41
2019-05-14T04:45:52.286Z,7.39
2019-05-14T04:46:56.276Z,7.43
2019-05-14T04:48:00.381Z,7.43
2019-05-14T04:49:04.685Z,7.39
2019-05-14T04:50:10.619Z,7.44
2019-05-14T04:51:14.131Z,7.44
2019-05-14T04:52:20.582Z,7.46
2019-05-14T04:53:23.481Z,7.48
2019-05-14T04:54:30.083Z,7.51
2019-05-14T04:55:32.834Z,7.52
2019-05-14T04:56:39.480Z,7.53
2019-05-14T04:57:42.034Z,7.52
2019-05-14T04:58:49.264Z,7.52
2019-05-14T04:59:51.444Z,7.48
2019-05-14T05:00:54.880Z,7.48
2019-05-14T05:02:00.046Z,7.52
2019-05-14T05:03:08.233Z,7.55
2019-05-14T05:04:09.774Z,7.55
2019-05-14T05:05:13.550Z,7.55
2019-05-14T05:06:19.190Z,7.55
2019-05-14T05:07:22.767Z,7.55
2019-05-14T05:08:30.042Z,7.60
2019-05-14T05:09:31.998Z,7.70
2019-05-14T05:10:35.974Z,7.72
2019-05-14T05:11:39.811Z,7.69
2019-05-14T05:12:43.819Z,7.65
2019-05-14T05:13:48.701Z,7.67
2019-05-14T05:14:52.835Z,7.70
2019-05-14T05:15:59.116Z,7.74
2019-05-14T05:17:01.986Z,7.72
2019-05-14T05:18:05.581Z,7.73
2019-05-14T05:19:10.390Z,7.78
2019-05-14T05:20:14.192Z,7.76
2019-05-14T05:21:19.247Z,7.75
2019-05-14T05:22:22.882Z,7.80
2019-05-14T05:23:28.211Z,7.81
2019-05-14T05:24:31.965Z,7.82
2019-05-14T05:25:38.312Z,7.90
2019-05-14T05:26:41.259Z,7.90
2019-05-14T05:27:45.314Z,7.90
2019-05-14T05:29:02.358Z,7.93
2019-05-14T05:29:54.599Z,7.93
2019-05-14T05:30:58.697Z,7.93
2019-05-14T05:32:02.661Z,7.91
2019-05-14T05:33:06.130Z,7.93
2019-05-14T05:34:10.121Z,7.93
2019-05-14T05:35:13.704Z,7.90
2019-05-14T05:36:18.493Z,7.94
2019-05-14T05:37:22.079Z,8.02
2019-05-14T05:38:26.101Z,8.08
2019-05-14T05:39:29.593Z,8.11
2019-05-14T05:40:33.653Z,8.15
2019-05-14T05:41:38.492Z,8.16
2019-05-14T05:42:42.623Z,8.16
2019-05-14T05:43:48.325Z,8.17
2019-05-14T05:44:51.794Z,8.15
2019-05-14T05:45:55.325Z,8.23
2019-05-14T05:46:59.842Z,8.28
2019-05-14T05:48:03.392Z,8.28
2019-05-14T05:49:08.083Z,8.34
2019-05-14T05:50:11.646Z,8.37
2019-05-14T05:51:18.412Z,8.37
2019-05-14T05:52:20.884Z,8.44
2019-05-14T05:53:24.897Z,8.44
2019-05-14T05:54:29.202Z,8.49
2019-05-14T05:55:33.421Z,8.49
2019-05-14T05:56:38.739Z,8.54
2019-05-14T05:57:42.729Z,8.57
2019-05-14T05:58:48.596Z,8.54
2019-05-14T05:59:51.919Z,8.57
2019-05-14T06:00:55.399Z,8.58
2019-05-14T06:01:59.495Z,8.61
2019-05-14T06:03:03.039Z,8.61
2019-05-14T06:04:08.737Z,8.63
2019-05-14T06:05:12.327Z,8.64
2019-05-14T06:06:16.352Z,8.69
2019-05-14T06:07:19.850Z,8.70
2019-05-14T06:08:23.836Z,8.73
2019-05-14T06:09:28.641Z,8.74
2019-05-14T06:10:32.830Z,8.73
2019-05-14T06:11:38.108Z,8.77
2019-05-14T06:12:42.132Z,8.81
2019-05-14T06:13:48.301Z,8.79
2019-05-14T06:14:51.318Z,8.79
2019-05-14T06:15:54.755Z,8.85
2019-05-14T06:16:59.229Z,8.85
2019-05-14T06:18:14.074Z,8.85
2019-05-14T06:19:08.518Z,8.88
2019-05-14T06:20:12.208Z,8.86
2019-05-14T06:21:18.705Z,8.94
2019-05-14T06:22:21.425Z,9.00
2019-05-14T06:23:25.438Z,9.00
2019-05-14T06:24:30.588Z,9.01
2019-05-14T06:25:34.760Z,9.02
2019-05-14T06:26:38.511Z,9.05
2019-05-14T06:27:42.678Z,9.10
2019-05-14T06:28:48.434Z,9.11
2019-05-14T06:29:54.426Z,9.13
2019-05-14T06:30:58.925Z,9.13
2019-05-14T06:32:02.745Z,9.16
2019-05-14T06:33:09.018Z,9.20
2019-05-14T06:34:12.059Z,9.24
2019-05-14T06:35:15.665Z,9.25
2019-05-14T06:36:19.920Z,9.25
2019-05-14T06:37:23.360Z,9.27
2019-05-14T06:38:29.431Z,9.30
2019-05-14T06:39:32.515Z,9.32
2019-05-14T06:40:39.269Z,9.30
2019-05-14T06:41:43.022Z,9.27
2019-05-14T06:42:48.612Z,9.23
2019-05-14T06:43:52.132Z,9.24
2019-05-14T06:44:58.411Z,9.25
2019-05-14T06:46:01.385Z,9.28
2019-05-14T06:47:05.464Z,9.31
2019-05-14T06:48:09.034Z,9.33
2019-05-14T06:49:13.016Z,9.36
2019-05-14T06:50:19.039Z,9.38
2019-05-14T06:51:22.598Z,9.42
2019-05-14T06:52:26.070Z,9.43
2019-05-14T06:53:30.047Z,9.49
2019-05-14T06:54:33.490Z,9.50
2019-05-14T06:55:39.332Z,9.54
2019-05-14T06:56:42.788Z,9.57
2019-05-14T06:57:48.036Z,9.61
2019-05-14T06:58:51.622Z,9.65
2019-05-14T06:59:55.601Z,9.66
2019-05-14T07:00:59.295Z,9.64
2019-05-14T07:02:03.288Z,9.58
2019-05-14T07:03:08.957Z,9.54
2019-05-14T07:04:12.444Z,9.50
2019-05-14T07:05:16.115Z,9.50
2019-05-14T07:06:20.171Z,9.55
2019-05-14T07:07:23.631Z,9.58
2019-05-14T07:08:28.443Z,9.65
2019-05-14T07:09:32.161Z,9.68
2019-05-14T07:10:36.180Z,9.74
2019-05-14T07:11:39.607Z,9.80
2019-05-14T07:12:43.608Z,9.81
2019-05-14T07:13:49.207Z,9.85
2019-05-14T07:14:53.023Z,9.83
2019-05-14T07:15:58.390Z,9.86
2019-05-14T07:17:02.324Z,9.87
2019-05-14T07:18:08.477Z,9.90
2019-05-14T07:19:11.536Z,9.89
2019-05-14T07:20:15.210Z,9.95
2019-05-14T07:21:19.281Z,9.99
2019-05-14T07:22:22.776Z,10.02
2019-05-14T07:23:28.911Z,10.04
2019-05-14T07:24:31.971Z,10.06
2019-05-14T07:25:35.967Z,10.02
2019-05-14T07:26:39.464Z,10.03
2019-05-14T07:27:43.546Z,10.04
2019-05-14T07:28:48.837Z,10.09
2019-05-14T07:29:52.707Z,10.11
2019-05-14T07:30:59.030Z,10.13
2019-05-14T07:32:01.845Z,10.15
2019-05-14T07:33:05.374Z,10.13
2019-05-14T07:34:09.370Z,10.11
2019-05-14T07:35:13.050Z,10.11
2019-05-14T07:36:18.871Z,10.12
2019-05-14T07:37:22.227Z,10.17
2019-05-14T07:38:28.404Z,10.21
2019-05-14T07:39:31.380Z,10.23
2019-05-14T07:40:38.600Z,10.28
2019-05-14T07:41:40.627Z,10.31
2019-05-14T07:42:44.685Z,10.36
2019-05-14T07:43:48.400Z,10.40
2019-05-14T07:44:52.506Z,10.43
2019-05-14T07:45:58.057Z,10.46
2019-05-14T07:47:01.727Z,10.45
2019-05-14T07:48:05.280Z,10.44
2019-05-14T07:49:11.932Z,10.38
2019-05-14T07:50:14.933Z,10.38
2019-05-14T07:51:19.218Z,10.33
2019-05-14T07:52:22.649Z,10.24
2019-05-14T07:53:36.169Z,10.31
2019-05-14T07:54:31.819Z,10.38
2019-05-14T07:55:38.326Z,10.39
2019-05-14T07:56:40.966Z,10.40
2019-05-14T07:57:44.957Z,10.42
2019-05-14T07:58:49.064Z,10.50
2019-05-14T07:59:53.351Z,10.50
2019-05-14T08:00:58.596Z,10.57
2019-05-14T08:02:02.523Z,10.61
2019-05-14T08:03:08.085Z,10.65
2019-05-14T08:04:12.004Z,10.69
2019-05-14T08:05:17.947Z,10.72
2019-05-14T08:06:21.609Z,10.77
2019-05-14T08:07:25.057Z,10.83
2019-05-14T08:08:29.421Z,10.87
2019-05-14T08:09:32.936Z,10.95
2019-05-14T08:10:39.035Z,10.96
2019-05-14T08:11:42.178Z,10.98
2019-05-14T08:12:48.336Z,10.97
2019-05-14T08:13:51.383Z,10.94
2019-05-14T08:15:13.393Z,10.96
2019-05-14T08:16:01.218Z,10.97
2019-05-14T08:17:05.293Z,11.04
2019-05-14T08:18:08.738Z,11.09
2019-05-14T08:19:24.380Z,11.14
2019-05-14T08:20:18.730Z,11.17
2019-05-14T08:21:22.757Z,11.22
2019-05-14T08:22:26.202Z,11.28
2019-05-14T08:23:29.977Z,11.28
2019-05-14T08:24:33.428Z,11.17
2019-05-14T08:25:39.043Z,11.06
2019-05-14T08:26:44.103Z,11.09
2019-05-14T08:27:48.378Z,11.15
2019-05-14T08:28:51.925Z,11.26
2019-05-14T08:29:55.912Z,11.33
2019-05-14T08:30:59.347Z,11.29
2019-05-14T08:32:03.364Z,11.30
2019-05-14T08:33:08.768Z,11.29
2019-05-14T08:34:12.513Z,11.31
2019-05-14T08:35:18.401Z,11.35
2019-05-14T08:36:21.853Z,11.42
2019-05-14T08:37:27.843Z,11.49
2019-05-14T08:38:31.223Z,11.48
2019-05-14T08:39:34.729Z,11.55
2019-05-14T08:40:38.888Z,11.57
2019-05-14T08:41:42.389Z,11.57
2019-05-14T08:42:46.376Z,11.59
2019-05-14T08:43:49.891Z,11.66
2019-05-14T08:44:53.899Z,11.67
2019-05-14T08:45:58.700Z,11.61
2019-05-14T08:47:03.012Z,11.56
2019-05-14T08:48:09.000Z,11.61
2019-05-14T08:49:12.340Z,11.64
2019-05-14T08:50:18.807Z,11.68
2019-05-14T08:51:22.832Z,11.67
2019-05-14T08:52:28.598Z,11.57
2019-05-14T08:53:31.989Z,11.54
2019-05-14T08:54:35.549Z,11.52
2019-05-14T08:55:39.337Z,11.55
2019-05-14T08:56:42.858Z,11.55
2019-05-14T08:57:48.960Z,11.53
2019-05-14T08:58:52.006Z,11.56
2019-05-14T08:59:59.151Z,11.54
2019-05-14T09:01:01.304Z,11.50
2019-05-14T09:02:06.525Z,11.42
2019-05-14T09:03:10.556Z,11.43
2019-05-14T09:04:14.559Z,11.37
2019-05-14T09:05:18.415Z,11.28
2019-05-14T09:06:22.395Z,11.28
2019-05-14T09:07:25.915Z,11.26
2019-05-14T09:08:29.908Z,11.11
2019-05-14T09:09:33.340Z,11.07
2019-05-14T09:10:40.012Z,11.01
2019-05-14T09:11:45.408Z,10.96
2019-05-14T09:12:49.080Z,10.92
2019-05-14T09:13:52.697Z,10.93
2019-05-14T09:14:58.887Z,10.90
2019-05-14T09:16:01.916Z,10.88
2019-05-14T09:17:05.921Z,10.90
2019-05-14T09:18:11.697Z,10.95
2019-05-14T09:19:15.216Z,10.79
2019-05-14T09:20:18.941Z,10.69
2019-05-14T09:21:22.947Z,10.69
2019-05-14T09:22:28.761Z,10.69
2019-05-14T09:23:32.135Z,10.74
2019-05-14T09:24:38.454Z,10.88
2019-05-14T09:25:46.934Z,10.97
2019-05-14T09:26:48.393Z,11.07
2019-05-14T09:27:52.414Z,11.04
2019-05-14T09:28:55.863Z,11.08
2019-05-14T09:29:59.868Z,10.98
2019-05-14T09:31:03.313Z,11.01
2019-05-14T09:32:09.552Z,10.97
2019-05-14T09:33:12.473Z,10.99
2019-05-14T09:34:16.459Z,11.03
2019-05-14T09:35:19.922Z,11.08
2019-05-14T09:36:24.461Z,11.05
2019-05-14T09:37:28.862Z,11.01
2019-05-14T09:38:32.993Z,11.01
2019-05-14T09:39:38.539Z,10.94
2019-05-14T09:40:42.201Z,10.97
2019-05-14T09:41:48.044Z,11.00
2019-05-14T09:42:51.515Z,11.08
2019-05-14T09:43:55.035Z,11.14
2019-05-14T09:44:59.707Z,11.13
2019-05-14T09:46:03.146Z,11.11
2019-05-14T09:47:08.471Z,11.09
2019-05-14T09:48:12.162Z,11.09
2019-05-14T09:49:18.549Z,11.13
2019-05-14T09:50:23.507Z,11.11
2019-05-14T09:51:28.808Z,11.18
2019-05-14T09:52:32.378Z,11.27
2019-05-14T09:53:38.353Z,11.34
2019-05-14T09:54:43.983Z,11.38
2019-05-14T09:55:49.108Z,11.45
2019-05-14T09:56:52.504Z,11.51
2019-05-14T09:57:58.550Z,11.66
2019-05-14T09:59:01.665Z,11.77
2019-05-14T10:00:09.101Z,11.82
2019-05-14T10:01:12.736Z,11.91
2019-05-14T10:02:16.710Z,11.92
2019-05-14T10:03:20.139Z,11.90
2019-05-14T10:04:24.141Z,11.70
2019-05-14T10:05:27.717Z,11.73
2019-05-14T10:06:31.733Z,11.86
2019-05-14T10:07:35.175Z,11.95
2019-05-14T10:08:39.312Z,12.13
2019-05-14T10:09:42.777Z,12.24
2019-05-14T10:10:48.855Z,12.35
2019-05-14T10:11:51.925Z,12.47
2019-05-14T10:12:57.199Z,12.56
2019-05-14T10:14:01.163Z,12.59
2019-05-14T10:15:09.592Z,12.52
2019-05-14T10:16:13.050Z,12.54
2019-05-14T10:17:19.343Z,12.56
2019-05-14T10:18:22.365Z,12.63
2019-05-14T10:19:29.324Z,12.76
2019-05-14T10:20:40.903Z,12.63
2019-05-14T10:21:38.852Z,12.60
2019-05-14T10:22:42.439Z,12.58
2019-05-14T10:23:46.514Z,12.58
2019-05-14T10:24:49.971Z,12.66
2019-05-14T10:25:53.966Z,12.78
2019-05-14T10:26:58.565Z,12.90
2019-05-14T10:28:02.725Z,13.02
2019-05-14T10:29:08.523Z,13.09
2019-05-14T10:30:12.266Z,13.23
2019-05-14T10:31:18.119Z,13.19
2019-05-14T10:32:21.552Z,13.22
2019-05-14T10:33:24.985Z,13.21
2019-05-14T10:34:29.043Z,13.30
2019-05-14T10:35:32.463Z,13.29
2019-05-14T10:36:36.291Z,13.00
2019-05-14T10:37:40.206Z,12.92
2019-05-14T10:38:44.197Z,12.87
2019-05-14T10:39:47.651Z,12.95
2019-05-14T10:40:51.733Z,13.06
2019-05-14T10:41:55.161Z,13.01
2019-05-14T10:42:59.215Z,13.33
2019-05-14T10:44:02.730Z,13.42
2019-05-14T10:45:12.451Z,13.44
2019-05-14T10:46:13.125Z,13.43
2019-05-14T10:47:18.783Z,13.36
2019-05-14T10:48:22.344Z,13.31
2019-05-14T10:49:29.734Z,13.11
2019-05-14T10:50:31.553Z,13.06
2019-05-14T10:51:35.699Z,13.01
2019-05-14T10:52:39.671Z,12.98
2019-05-14T10:53:43.743Z,13.01
2019-05-14T10:54:55.331Z,12.89
2019-05-14T10:55:52.878Z,12.94
2019-05-14T10:56:59.177Z,13.08
2019-05-14T10:58:02.149Z,13.25
2019-05-14T10:59:05.704Z,13.43
2019-05-14T11:00:10.331Z,13.64
2019-05-14T11:01:13.833Z,13.74
2019-05-14T11:02:18.540Z,13.86
2019-05-14T11:03:22.151Z,13.81
2019-05-14T11:04:28.402Z,13.69
2019-05-14T11:05:31.361Z,13.58
2019-05-14T11:06:35.422Z,13.61
2019-05-14T11:07:41.710Z,13.47
2019-05-14T11:08:44.634Z,13.25
2019-05-14T11:09:48.623Z,13.32
2019-05-14T11:10:52.701Z,13.23
2019-05-14T11:11:58.221Z,13.18
2019-05-14T11:13:01.867Z,13.08
2019-05-14T11:14:05.435Z,13.05
2019-05-14T11:15:11.063Z,12.87
2019-05-14T11:16:14.498Z,12.73
2019-05-14T11:17:19.728Z,12.63
2019-05-14T11:18:23.319Z,12.51
2019-05-14T11:19:28.168Z,12.47
2019-05-14T11:20:31.777Z,12.38
2019-05-14T11:21:35.768Z,12.27
2019-05-14T11:22:39.336Z,11.95
2019-05-14T11:23:43.423Z,11.82
2019-05-14T11:24:49.131Z,11.83
2019-05-14T11:25:52.659Z,11.76
2019-05-14T11:26:58.854Z,11.60
2019-05-14T11:28:01.936Z,11.57
2019-05-14T11:29:05.633Z,11.59
2019-05-14T11:30:10.395Z,11.66
2019-05-14T11:31:13.832Z,11.71
2019-05-14T11:32:18.548Z,11.78
2019-05-14T11:33:22.072Z,11.83
2019-05-14T11:34:28.527Z,11.93
2019-05-14T11:35:31.332Z,11.98
2019-05-14T11:36:35.324Z,11.98
2019-05-14T11:37:41.506Z,12.02
2019-05-14T11:38:44.731Z,12.11
2019-05-14T11:39:48.792Z,12.06
2019-05-14T11:40:52.922Z,12.01
2019-05-14T11:41:58.762Z,11.97
2019-05-14T11:43:02.078Z,12.04
2019-05-14T11:44:05.656Z,12.12
2019-05-14T11:45:10.609Z,12.06
2019-05-14T11:46:14.196Z,12.15
2019-05-14T11:47:18.300Z,12.30
2019-05-14T11:48:21.850Z,12.66
2019-05-14T11:49:25.834Z,12.98
2019-05-14T11:50:29.290Z,13.22
2019-05-14T11:51:58.832Z,13.25
2019-05-14T11:52:38.948Z,13.21
2019-05-14T11:53:42.980Z,13.18
2019-05-14T11:54:49.206Z,13.04
2019-05-14T11:55:52.157Z,12.95
2019-05-14T11:56:55.604Z,13.01
2019-05-14T11:57:59.592Z,13.22
2019-05-14T11:59:03.375Z,13.51
2019-05-14T12:00:08.927Z,13.81
2019-05-14T12:01:12.453Z,14.05
2019-05-14T12:02:18.774Z,14.19
2019-05-14T12:03:21.741Z,14.40
2019-05-14T12:04:28.218Z,14.58
2019-05-14T12:05:30.910Z,14.84
2019-05-14T12:06:34.972Z,15.07
2019-05-14T12:07:38.979Z,15.17
2019-05-14T12:08:43.176Z,15.23
2019-05-14T12:09:46.676Z,15.26
2019-05-14T12:10:50.667Z,15.56
2019-05-14T12:11:54.202Z,15.53
2019-05-14T12:12:58.571Z,15.39
2019-05-14T12:14:02.024Z,15.44
2019-05-14T12:15:08.883Z,15.24
2019-05-14T12:16:12.506Z,15.17
2019-05-14T12:17:16.527Z,15.09
2019-05-14T12:18:20.031Z,15.31
2019-05-14T12:19:24.096Z,15.72
2019-05-14T12:20:29.596Z,16.07
2019-05-14T12:21:33.255Z,16.33
2019-05-14T12:22:39.041Z,16.30
2019-05-14T12:23:42.504Z,16.54
2019-05-14T12:24:45.935Z,16.53
2019-05-14T12:25:50.071Z,16.16
2019-05-14T12:26:53.504Z,15.63
2019-05-14T12:27:58.918Z,15.65
2019-05-14T12:29:02.532Z,15.67
2019-05-14T12:30:09.653Z,15.88
2019-05-14T12:31:13.350Z,16.20
2019-05-14T12:32:18.921Z,16.62
2019-05-14T12:33:22.674Z,16.71
2019-05-14T12:34:29.394Z,16.53
2019-05-14T12:35:31.833Z,16.33
2019-05-14T12:36:38.699Z,16.15
2019-05-14T12:37:41.000Z,15.81
2019-05-14T12:38:44.996Z,15.32
2019-05-14T12:39:48.495Z,14.96
2019-05-14T12:40:52.472Z,14.78
2019-05-14T12:41:58.172Z,14.58
2019-05-14T12:43:01.658Z,14.54
2019-05-14T12:44:05.432Z,14.51
2019-05-14T12:45:11.365Z,14.28
2019-05-14T12:46:14.952Z,14.13
2019-05-14T12:47:19.060Z,14.05
2019-05-14T12:48:22.467Z,13.93
2019-05-14T12:49:26.528Z,13.89
2019-05-14T12:50:29.956Z,13.91
2019-05-14T12:51:33.962Z,13.71
2019-05-14T12:52:38.847Z,13.68
2019-05-14T12:53:43.179Z,13.63
2019-05-14T12:54:46.649Z,13.70
2019-05-14T12:55:50.769Z,13.77
2019-05-14T12:56:54.248Z,13.87
2019-05-14T12:57:59.653Z,14.46
2019-05-14T12:59:03.407Z,15.20
2019-05-14T13:00:11.793Z,15.85
2019-05-14T13:01:15.219Z,16.22
2019-05-14T13:02:19.206Z,16.66
2019-05-14T13:03:22.702Z,16.59
2019-05-14T13:04:28.496Z,16.17
2019-05-14T13:05:32.223Z,16.56
2019-05-14T13:06:39.911Z,17.09
2019-05-14T13:07:41.953Z,16.92
2019-05-14T13:08:45.942Z,16.99
2019-05-14T13:09:49.570Z,17.40
2019-05-14T13:10:53.557Z,17.97
2019-05-14T13:11:58.628Z,18.36
2019-05-14T13:13:02.605Z,18.62
2019-05-14T13:14:06.297Z,18.79
2019-05-14T13:15:10.754Z,18.88
2019-05-14T13:16:14.450Z,18.97
2019-05-14T13:17:18.857Z,19.07
2019-05-14T13:18:22.317Z,19.13
2019-05-14T13:19:28.372Z,18.83
2019-05-14T13:20:31.545Z,18.41
2019-05-14T13:21:35.603Z,19.08
2019-05-14T13:22:46.095Z,19.85
2019-05-14T13:23:45.216Z,19.92
2019-05-14T13:24:49.419Z,19.41
2019-05-14T13:25:53.549Z,18.91
2019-05-14T13:26:58.862Z,19.25
2019-05-14T13:28:03.002Z,19.67
2019-05-14T13:29:10.520Z,19.42
2019-05-14T13:30:12.572Z,18.88
2019-05-14T13:31:18.413Z,18.95
2019-05-14T13:32:21.903Z,19.23
2019-05-14T13:33:25.336Z,18.88
2019-05-14T13:34:29.480Z,18.82
2019-05-14T13:35:32.922Z,19.26
2019-05-14T13:36:39.527Z,19.80
2019-05-14T13:37:42.179Z,20.08
2019-05-14T13:38:49.136Z,20.24
2019-05-14T13:39:53.146Z,20.10
2019-05-14T13:40:59.429Z,20.55
2019-05-14T13:42:02.624Z,20.56
2019-05-14T13:43:09.664Z,20.90
2019-05-14T13:44:21.649Z,20.96
2019-05-14T13:45:19.070Z,20.59
2019-05-14T13:46:22.750Z,19.95
2019-05-14T13:47:28.786Z,19.20
2019-05-14T13:48:31.989Z,18.51
2019-05-14T13:49:38.917Z,18.12
2019-05-14T13:50:41.431Z,18.02
2019-05-14T13:51:45.427Z,17.88
2019-05-14T13:53:01.942Z,17.55
2019-05-14T13:53:54.566Z,17.44
2019-05-14T13:54:58.106Z,17.29
2019-05-14T13:56:02.105Z,17.07
2019-05-14T13:57:05.541Z,16.88
2019-05-14T13:58:09.793Z,16.34
2019-05-14T13:59:13.227Z,16.28
2019-05-14T14:00:20.008Z,16.18
2019-05-14T14:01:23.205Z,16.02
2019-05-14T14:02:28.878Z,15.87
2019-05-14T14:03:32.648Z,15.67